createdAt,value
2024-04-18T00:00:52.414Z,9.73
2024-04-18T00:06:15.427Z,8.37
2024-04-18T00:11:22.526Z,11.27
2024-04-18T00:16:27.062Z,10.50
2024-04-18T00:21:34.840Z,8.37
2024-04-18T00:26:41.922Z,10.37
2024-04-18T00:31:46.409Z,12.77
2024-04-18T00:36:50.896Z,10.50
2024-04-18T00:41:58.018Z,11.57
2024-04-18T00:47:03.010Z,10.97
2024-04-18T00:52:07.783Z,10.17
2024-04-18T00:57:15.738Z,10.07
2024-04-18T01:02:20.732Z,12.07
2024-04-18T01:07:25.427Z,11.57
2024-04-18T01:12:32.867Z,10.90
2024-04-18T01:17:38.197Z,10.13
2024-04-18T01:22:43.230Z,13.77
2024-04-18T01:27:50.394Z,12.37
2024-04-18T01:32:54.921Z,13.10
2024-04-18T01:37:59.384Z,16.73
2024-04-18T01:43:06.724Z,13.47
2024-04-18T01:48:11.453Z,13.33
2024-04-18T01:53:16.018Z,14.40
2024-04-18T01:58:23.139Z,12.67
2024-04-18T02:03:27.663Z,13.67
2024-04-18T02:08:32.209Z,12.23
2024-04-18T02:13:39.290Z,11.27
2024-04-18T02:18:43.843Z,12.80
2024-04-18T02:23:48.353Z,13.83
2024-04-18T02:28:55.405Z,12.97
2024-04-18T02:33:59.887Z,14.63
2024-04-18T02:39:04.350Z,14.63
2024-04-18T02:44:11.442Z,15.53
2024-04-18T02:49:15.923Z,15.27
2024-04-18T02:54:20.415Z,15.20
2024-04-18T02:59:27.461Z,16.23
2024-04-18T03:04:32.113Z,21.10
2024-04-18T03:09:36.666Z,18.37
2024-04-18T03:14:44.083Z,18.23
2024-04-18T03:19:48.581Z,19.40
2024-04-18T03:24:53.063Z,19.20
2024-04-18T03:30:00.412Z,19.63
2024-04-18T03:35:05.057Z,19.57
2024-04-18T03:40:10.450Z,18.43
2024-04-18T03:45:17.720Z,19.13
2024-04-18T03:50:22.442Z,19.43
2024-04-18T03:55:27.193Z,19.17
2024-04-18T04:00:34.445Z,17.97
2024-04-18T04:05:38.995Z,19.67
2024-04-18T04:10:43.620Z,18.83
2024-04-18T04:15:53.942Z,16.07
2024-04-18T04:20:58.413Z,12.80
2024-04-18T04:31:34.610Z,12.80
2024-04-18T04:36:40.427Z,15.77
2024-04-18T04:41:47.288Z,17.43
2024-04-18T04:46:54.688Z,21.00
2024-04-18T04:51:59.171Z,21.80
2024-04-18T04:57:04.160Z,24.77
2024-04-18T05:02:11.540Z,25.97
2024-04-18T05:07:16.037Z,33.47
2024-04-18T05:12:20.499Z,29.03
2024-04-18T05:17:28.011Z,26.23
2024-04-18T05:22:32.489Z,23.57
2024-04-18T05:27:44.012Z,21.20
2024-04-18T05:32:51.124Z,21.27
2024-04-18T05:37:55.688Z,20.20
2024-04-18T05:43:00.207Z,17.90
2024-04-18T05:48:07.525Z,19.00
2024-04-18T05:53:12.031Z,15.13
2024-04-18T05:58:17.171Z,15.50
2024-04-18T06:03:25.622Z,17.23
2024-04-18T06:08:31.116Z,12.80
2024-04-18T06:13:38.215Z,12.93
2024-04-18T06:18:45.285Z,12.13
2024-04-18T06:23:49.802Z,16.97
2024-04-18T06:28:54.300Z,10.97
2024-04-18T06:34:01.647Z,9.87
2024-04-18T06:39:08.676Z,11.10
2024-04-18T06:44:13.193Z,7.77
2024-04-18T06:49:20.233Z,11.03
2024-04-18T06:54:25.677Z,26.03
2024-04-18T06:59:30.183Z,11.73
2024-04-18T07:04:37.690Z,12.40
2024-04-18T07:09:42.448Z,11.90
2024-04-18T07:14:47.013Z,13.40
2024-04-18T07:19:54.252Z,8.87
2024-04-18T07:24:58.794Z,12.63
2024-04-18T07:30:03.305Z,8.90
2024-04-18T07:35:10.982Z,8.13
2024-04-18T07:40:19.588Z,10.80
2024-04-18T07:45:24.379Z,9.00
2024-04-18T07:50:31.468Z,8.77
2024-04-18T07:55:36.149Z,9.70
2024-04-18T08:00:42.092Z,8.73
2024-04-18T08:05:52.053Z,10.50
2024-04-18T08:11:16.766Z,8.77
2024-04-18T08:16:25.255Z,7.10
2024-04-18T08:21:32.477Z,8.13
2024-04-18T08:26:39.032Z,7.43
2024-04-18T08:31:43.547Z,5.90
2024-04-18T08:36:50.629Z,6.57
2024-04-18T08:41:57.046Z,6.30
2024-04-18T08:47:03.151Z,4.07
2024-04-18T08:52:11.109Z,4.95
2024-04-18T08:57:20.198Z,3.50
2024-04-18T09:02:24.848Z,2.55
2024-04-18T09:07:31.986Z,3.25
2024-04-18T09:12:36.776Z,2.40
2024-04-18T09:17:42.180Z,2.22
2024-04-18T09:22:49.276Z,1.45
2024-04-18T09:27:53.742Z,2.10
2024-04-18T09:33:01.860Z,2.17
2024-04-18T09:38:15.016Z,2.65
2024-04-18T09:43:25.826Z,3.50
2024-04-18T09:48:33.962Z,1.52
2024-04-18T09:53:42.173Z,2.35
2024-04-18T09:58:47.925Z,2.00
2024-04-18T10:03:52.583Z,2.05
2024-04-18T10:09:01.326Z,1.20
2024-04-18T10:14:09.889Z,1.30
2024-04-18T10:19:14.792Z,1.30
2024-04-18T10:24:22.314Z,1.30
2024-04-18T10:29:28.076Z,1.33
2024-04-18T10:34:33.739Z,0.70
2024-04-18T10:39:44.531Z,1.63
2024-04-18T10:44:49.934Z,0.88
2024-04-18T10:49:54.937Z,0.88
2024-04-18T10:55:02.324Z,1.17
2024-04-18T11:00:08.400Z,1.05
2024-04-18T11:05:12.981Z,1.15
2024-04-18T11:10:20.405Z,0.70
2024-04-18T11:15:26.195Z,1.02
2024-04-18T11:20:32.116Z,1.70
2024-04-18T11:25:42.862Z,1.98
2024-04-18T11:30:47.476Z,1.15
2024-04-18T11:35:52.300Z,1.92
2024-04-18T11:40:59.375Z,2.72
2024-04-18T11:46:03.973Z,1.33
2024-04-18T11:51:08.566Z,1.02
2024-04-18T11:56:15.822Z,1.60
2024-04-18T12:01:20.316Z,1.15
2024-04-18T12:06:25.321Z,1.60
2024-04-18T12:11:33.648Z,1.17
2024-04-18T12:16:38.526Z,1.10
2024-04-18T12:21:43.074Z,1.33
2024-04-18T12:26:50.133Z,1.40
2024-04-18T12:31:54.965Z,1.42
2024-04-18T12:36:59.597Z,1.02
2024-04-18T12:42:07.162Z,1.13
2024-04-18T12:47:11.738Z,0.70
2024-04-18T12:52:16.291Z,1.50
2024-04-18T12:57:23.423Z,1.55
2024-04-18T13:02:34.876Z,1.75
2024-04-18T13:07:40.054Z,1.70
2024-04-18T13:12:47.199Z,1.13
2024-04-18T13:17:51.718Z,1.23
2024-04-18T13:22:56.511Z,1.48
2024-04-18T13:28:03.675Z,0.80
2024-04-18T13:33:08.402Z,2.60
2024-04-18T13:38:12.956Z,4.70
2024-04-18T13:43:20.044Z,1.05
2024-04-18T13:48:24.577Z,1.50
2024-04-18T13:53:29.057Z,1.10
2024-04-18T13:58:36.374Z,1.00
2024-04-18T14:03:41.346Z,1.08
2024-04-18T14:08:45.898Z,3.10
2024-04-18T14:13:53.010Z,2.53
2024-04-18T14:18:59.077Z,2.75
2024-04-18T14:24:03.929Z,1.77
2024-04-18T14:29:11.002Z,1.40
2024-04-18T14:34:15.632Z,2.55
2024-04-18T14:39:20.264Z,1.77
2024-04-18T14:44:27.698Z,1.40
2024-04-18T14:49:35.034Z,2.45
2024-04-18T14:54:41.089Z,2.67
2024-04-18T14:59:48.152Z,2.22
2024-04-18T15:04:52.770Z,2.33
2024-04-18T15:09:57.425Z,2.17
2024-04-18T15:15:04.622Z,1.27
2024-04-18T15:20:12.545Z,1.88
2024-04-18T15:25:17.141Z,2.15
2024-04-18T15:30:24.249Z,2.70
2024-04-18T15:35:28.727Z,1.50
2024-04-18T15:40:34.900Z,3.72
2024-04-18T15:45:45.137Z,1.00
2024-04-18T15:50:49.762Z,1.35
2024-04-18T15:55:56.378Z,1.33
2024-04-18T16:01:03.547Z,0.60
2024-04-18T16:06:08.454Z,2.97
2024-04-18T16:11:13.026Z,2.33
2024-04-18T16:16:20.125Z,1.77
2024-04-18T16:21:24.806Z,3.10
2024-04-18T16:26:29.243Z,0.93
2024-04-18T16:31:36.506Z,0.57
2024-04-18T16:36:49.779Z,2.70
2024-04-18T16:42:00.291Z,3.20
2024-04-18T16:47:08.048Z,1.05
2024-04-18T16:52:12.856Z,1.13
2024-04-18T16:57:17.494Z,1.33
2024-04-18T17:02:24.557Z,3.30
2024-04-18T17:07:29.028Z,1.23
2024-04-18T17:12:33.522Z,2.13
2024-04-18T17:17:40.768Z,1.85
2024-04-18T17:22:45.332Z,2.30
2024-04-18T17:27:49.852Z,1.55
2024-04-18T17:32:56.895Z,4.85
2024-04-18T17:38:02.148Z,1.90
2024-04-18T17:43:07.095Z,2.72
2024-04-18T17:48:15.613Z,2.53
2024-04-18T17:53:20.223Z,1.13
2024-04-18T17:58:24.822Z,3.40
2024-04-18T18:03:32.135Z,1.40
2024-04-18T18:08:36.815Z,1.60
2024-04-18T18:13:41.327Z,0.77
2024-04-18T18:18:48.595Z,5.37
2024-04-18T18:23:53.307Z,1.40
2024-04-18T18:28:58.011Z,3.63
2024-04-18T18:34:05.157Z,3.80
2024-04-18T18:39:10.219Z,2.07
2024-04-18T18:44:16.750Z,2.37
2024-04-18T18:49:25.238Z,4.90
2024-04-18T18:54:29.944Z,3.27
2024-04-18T18:59:34.935Z,4.70
2024-04-18T19:04:42.327Z,5.73
2024-04-18T19:09:46.868Z,4.50
2024-04-18T19:14:51.456Z,7.10
2024-04-18T19:19:58.864Z,10.77
2024-04-18T19:25:03.461Z,10.87
2024-04-18T19:30:09.029Z,10.83
2024-04-18T19:35:16.405Z,19.23
2024-04-18T19:40:21.003Z,13.10
2024-04-18T19:45:27.425Z,8.63
2024-04-18T19:50:36.774Z,6.00
2024-04-18T19:55:41.439Z,4.93
2024-04-18T20:00:46.234Z,4.67
2024-04-18T20:05:53.738Z,6.67
2024-04-18T20:10:58.289Z,5.70
2024-04-18T20:16:02.890Z,4.50
2024-04-18T20:21:10.248Z,6.00
2024-04-18T20:26:14.928Z,7.13
2024-04-18T20:31:19.639Z,6.53
2024-04-18T20:36:26.707Z,7.57
2024-04-18T20:41:31.252Z,8.03
2024-04-18T20:46:38.350Z,5.93
2024-04-18T20:51:45.730Z,7.73
2024-04-18T20:56:50.438Z,9.70
2024-04-18T21:01:55.608Z,11.53
2024-04-18T21:07:02.908Z,9.03
2024-04-18T21:12:08.341Z,7.73
2024-04-18T21:17:13.099Z,8.00
2024-04-18T21:22:20.283Z,8.50
2024-04-18T21:27:24.972Z,5.87
2024-04-18T21:32:29.704Z,6.67
2024-04-18T21:37:37.172Z,5.50
2024-04-18T21:42:41.868Z,6.33
2024-04-18T21:47:46.637Z,4.73
2024-04-18T21:52:53.960Z,6.17
2024-04-18T21:57:58.858Z,6.60
2024-04-18T22:03:03.497Z,4.87
2024-04-18T22:08:11.153Z,6.57
2024-04-18T22:13:15.917Z,6.97
2024-04-18T22:18:20.631Z,5.50
2024-04-18T22:23:27.939Z,3.33
2024-04-18T22:28:32.577Z,5.07
2024-04-18T22:33:38.125Z,5.27
2024-04-18T22:38:45.754Z,5.53
2024-04-18T22:43:50.607Z,6.43
2024-04-18T22:48:56.430Z,6.27
2024-04-18T22:54:03.690Z,8.77
2024-04-18T22:59:08.350Z,6.00
2024-04-18T23:04:13.133Z,6.03
2024-04-18T23:09:20.411Z,5.87
2024-04-18T23:14:25.104Z,3.40
2024-04-18T23:19:29.821Z,3.73
2024-04-18T23:24:37.144Z,4.57
2024-04-18T23:29:41.746Z,4.87
2024-04-18T23:34:46.320Z,2.90
2024-04-18T23:39:53.646Z,5.13
2024-04-18T23:44:58.425Z,4.27
2024-04-18T23:50:04.133Z,3.50
2024-04-18T23:55:11.502Z,3.77
